createdAt,value
2022-07-30T00:00:25.176Z,0.00
2022-07-30T00:01:22.195Z,0.00
2022-07-30T00:02:22.155Z,0.00
2022-07-30T00:03:22.162Z,0.00
2022-07-30T00:04:22.122Z,0.00
2022-07-30T00:05:22.118Z,0.00
2022-07-30T00:06:22.095Z,0.00
2022-07-30T00:07:22.085Z,0.00
2022-07-30T00:08:22.085Z,0.00
2022-07-30T00:09:22.057Z,0.00
2022-07-30T00:10:22.042Z,0.00
2022-07-30T00:11:25.917Z,0.00
2022-07-30T00:12:22.017Z,0.00
2022-07-30T00:13:22.011Z,0.00
2022-07-30T00:14:21.989Z,0.00
2022-07-30T00:15:21.974Z,0.00
2022-07-30T00:16:22.021Z,0.00
2022-07-30T00:17:21.948Z,0.00
2022-07-30T00:18:22.451Z,0.00
2022-07-30T00:19:21.921Z,0.00
2022-07-30T00:20:21.910Z,0.00
2022-07-30T00:21:35.745Z,0.00
2022-07-30T00:22:21.883Z,0.00
2022-07-30T00:23:21.868Z,0.00
2022-07-30T00:24:21.858Z,0.00
2022-07-30T00:25:21.843Z,0.00
2022-07-30T00:26:21.830Z,0.00
2022-07-30T00:27:21.816Z,0.00
2022-07-30T00:28:21.804Z,0.00
2022-07-30T00:29:21.800Z,0.00
2022-07-30T00:30:21.778Z,0.00
2022-07-30T00:31:21.781Z,0.00
2022-07-30T00:32:21.750Z,0.00
2022-07-30T00:33:21.739Z,0.00
2022-07-30T00:34:21.728Z,0.00
2022-07-30T00:35:21.709Z,0.00
2022-07-30T00:36:21.696Z,0.00
2022-07-30T00:37:21.684Z,0.00
2022-07-30T00:38:21.668Z,0.00
2022-07-30T00:39:21.663Z,0.00
2022-07-30T00:40:21.642Z,0.00
2022-07-30T00:41:21.631Z,0.00
2022-07-30T00:42:21.620Z,0.00
2022-07-30T00:43:21.606Z,0.00
2022-07-30T00:44:21.589Z,0.00
2022-07-30T00:45:21.578Z,0.00
2022-07-30T00:46:21.620Z,0.00
2022-07-30T00:47:21.551Z,0.00
2022-07-30T00:48:21.537Z,0.00
2022-07-30T00:49:21.559Z,0.00
2022-07-30T00:50:21.629Z,0.00
2022-07-30T00:51:21.497Z,0.00
2022-07-30T00:52:21.484Z,0.00
2022-07-30T00:53:21.473Z,0.00
2022-07-30T00:54:21.455Z,0.00
2022-07-30T00:55:21.445Z,0.00
2022-07-30T00:56:21.429Z,0.00
2022-07-30T00:57:21.418Z,0.00
2022-07-30T00:58:21.403Z,0.00
2022-07-30T00:59:21.390Z,0.00
2022-07-30T01:00:21.376Z,0.00
2022-07-30T01:01:21.414Z,0.00
2022-07-30T01:02:21.379Z,0.00
2022-07-30T01:03:21.336Z,0.00
2022-07-30T01:04:21.324Z,0.00
2022-07-30T01:05:21.308Z,0.00
2022-07-30T01:06:21.294Z,0.00
2022-07-30T01:07:21.283Z,0.00
2022-07-30T01:08:21.268Z,0.00
2022-07-30T01:09:21.257Z,0.00
2022-07-30T01:10:21.240Z,0.00
2022-07-30T01:11:21.229Z,0.00
2022-07-30T01:12:21.217Z,0.00
2022-07-30T01:13:21.206Z,0.00
2022-07-30T01:14:21.185Z,0.00
2022-07-30T01:15:21.172Z,0.00
2022-07-30T01:16:21.201Z,0.00
2022-07-30T01:17:21.145Z,0.00
2022-07-30T01:18:21.131Z,0.00
2022-07-30T01:19:21.117Z,0.00
2022-07-30T01:20:21.102Z,0.00
2022-07-30T01:21:21.098Z,0.00
2022-07-30T01:22:21.074Z,0.00
2022-07-30T01:23:21.063Z,0.00
2022-07-30T01:24:21.051Z,0.00
2022-07-30T01:25:21.036Z,0.00
2022-07-30T01:26:21.019Z,0.00
2022-07-30T01:27:21.017Z,0.00
2022-07-30T01:28:20.993Z,0.00
2022-07-30T01:29:20.981Z,0.00
2022-07-30T01:30:20.985Z,0.00
2022-07-30T01:31:21.049Z,0.00
2022-07-30T01:32:20.935Z,0.00
2022-07-30T01:33:20.925Z,0.00
2022-07-30T01:34:20.911Z,0.00
2022-07-30T01:35:20.897Z,0.00
2022-07-30T01:36:20.887Z,0.00
2022-07-30T01:37:20.887Z,0.00
2022-07-30T01:38:20.852Z,0.00
2022-07-30T01:39:20.839Z,0.00
2022-07-30T01:40:20.825Z,0.00
2022-07-30T01:41:20.813Z,0.00
2022-07-30T01:42:20.795Z,0.00
2022-07-30T01:43:20.784Z,0.00
2022-07-30T01:44:24.049Z,0.00
2022-07-30T01:45:20.853Z,0.00
2022-07-30T01:46:20.841Z,0.00
2022-07-30T01:47:20.728Z,0.00
2022-07-30T01:48:20.713Z,0.00
2022-07-30T01:49:20.742Z,0.00
2022-07-30T01:50:20.683Z,0.00
2022-07-30T01:51:20.670Z,0.00
2022-07-30T01:52:20.658Z,0.00
2022-07-30T01:53:20.645Z,0.00
2022-07-30T01:54:20.628Z,0.00
2022-07-30T01:55:20.616Z,0.00
2022-07-30T01:56:24.827Z,0.00
2022-07-30T01:57:20.585Z,0.00
2022-07-30T01:58:20.569Z,0.00
2022-07-30T01:59:20.558Z,0.00
2022-07-30T02:00:20.544Z,0.00
2022-07-30T02:01:20.583Z,0.00
2022-07-30T02:02:20.515Z,0.00
2022-07-30T02:03:21.297Z,0.00
2022-07-30T02:04:20.486Z,0.00
2022-07-30T02:05:20.472Z,0.00
2022-07-30T02:06:20.468Z,0.00
2022-07-30T02:07:20.446Z,0.00
2022-07-30T02:08:20.431Z,0.00
2022-07-30T02:09:20.419Z,0.00
2022-07-30T02:10:20.402Z,0.00
2022-07-30T02:11:20.388Z,0.00
2022-07-30T02:12:20.372Z,0.00
2022-07-30T02:13:20.361Z,0.00
2022-07-30T02:14:20.343Z,0.00
2022-07-30T02:15:20.333Z,0.00
2022-07-30T02:16:20.363Z,0.00
2022-07-30T02:17:20.303Z,0.00
2022-07-30T02:18:21.394Z,0.00
2022-07-30T02:19:20.275Z,0.00
2022-07-30T02:20:20.264Z,0.00
2022-07-30T02:21:20.251Z,0.00
2022-07-30T02:22:20.232Z,0.00
2022-07-30T02:23:20.230Z,0.00
2022-07-30T02:24:20.204Z,0.00
2022-07-30T02:25:20.191Z,0.00
2022-07-30T02:26:20.173Z,0.00
2022-07-30T02:27:20.164Z,0.00
2022-07-30T02:28:20.148Z,0.00
2022-07-30T02:29:20.133Z,0.00
2022-07-30T02:30:20.130Z,0.00
2022-07-30T02:31:20.164Z,0.00
2022-07-30T02:32:20.089Z,0.00
2022-07-30T02:33:20.083Z,0.00
2022-07-30T02:34:20.059Z,0.00
2022-07-30T02:35:20.048Z,0.00
2022-07-30T02:36:20.050Z,0.00
2022-07-30T02:37:20.019Z,0.00
2022-07-30T02:38:20.001Z,0.00
2022-07-30T02:39:20.006Z,0.00
2022-07-30T02:40:19.977Z,0.00
2022-07-30T02:41:19.962Z,0.00
2022-07-30T02:42:19.948Z,0.00
2022-07-30T02:43:19.933Z,0.00
2022-07-30T02:44:19.916Z,0.00
2022-07-30T02:45:19.903Z,0.00
2022-07-30T02:46:19.981Z,0.00
2022-07-30T02:47:19.876Z,0.00
2022-07-30T02:48:34.694Z,0.00
2022-07-30T02:49:19.884Z,0.00
2022-07-30T02:50:19.833Z,0.00
2022-07-30T02:51:19.819Z,0.00
2022-07-30T02:52:19.806Z,0.00
2022-07-30T02:53:19.794Z,0.00
2022-07-30T02:54:19.775Z,0.00
2022-07-30T02:55:19.763Z,0.00
2022-07-30T02:56:19.746Z,0.00
2022-07-30T02:57:19.732Z,0.00
2022-07-30T02:58:19.743Z,0.00
2022-07-30T02:59:19.711Z,0.00
2022-07-30T03:00:19.691Z,0.00
2022-07-30T03:01:19.738Z,0.00
2022-07-30T03:02:26.510Z,0.00
2022-07-30T03:03:19.649Z,0.00
2022-07-30T03:04:19.633Z,0.00
2022-07-30T03:05:19.622Z,0.00
2022-07-30T03:06:19.602Z,0.00
2022-07-30T03:07:19.590Z,0.00
2022-07-30T03:08:19.577Z,0.00
2022-07-30T03:09:19.578Z,0.00
2022-07-30T03:10:19.545Z,0.00
2022-07-30T03:11:19.533Z,0.00
2022-07-30T03:12:19.520Z,0.00
2022-07-30T03:13:19.505Z,0.00
2022-07-30T03:14:19.487Z,0.00
2022-07-30T03:15:19.478Z,0.00
2022-07-30T03:16:19.512Z,0.00
2022-07-30T03:17:19.448Z,0.00
2022-07-30T03:18:19.433Z,0.00
2022-07-30T03:19:19.419Z,0.00
2022-07-30T03:20:19.408Z,0.00
2022-07-30T03:21:19.390Z,0.00
2022-07-30T03:22:19.375Z,0.00
2022-07-30T03:23:19.363Z,0.00
2022-07-30T03:24:19.345Z,0.00
2022-07-30T03:25:19.335Z,0.00
2022-07-30T03:26:19.318Z,0.00
2022-07-30T03:27:19.304Z,0.00
2022-07-30T03:28:19.292Z,0.00
2022-07-30T03:29:21.679Z,0.00
2022-07-30T03:30:19.257Z,0.00
2022-07-30T03:31:19.345Z,0.00
2022-07-30T03:32:19.229Z,0.00
2022-07-30T03:33:19.218Z,0.00
2022-07-30T03:34:19.202Z,0.00
2022-07-30T03:35:20.239Z,0.00
2022-07-30T03:36:19.172Z,0.00
2022-07-30T03:37:19.159Z,0.00
2022-07-30T03:38:19.143Z,0.00
2022-07-30T03:39:19.135Z,0.00
2022-07-30T03:40:19.114Z,0.00
2022-07-30T03:41:19.107Z,0.00
2022-07-30T03:42:19.085Z,0.00
2022-07-30T03:43:33.045Z,0.00
2022-07-30T03:44:19.057Z,0.00
2022-07-30T03:45:19.047Z,0.00
2022-07-30T03:46:19.088Z,0.00
2022-07-30T03:47:19.023Z,0.00
2022-07-30T03:48:19.001Z,0.00
2022-07-30T03:49:19.057Z,0.00
2022-07-30T03:50:18.971Z,0.00
2022-07-30T03:51:18.957Z,0.00
2022-07-30T03:52:18.948Z,0.00
2022-07-30T03:53:18.929Z,0.00
2022-07-30T03:54:18.916Z,0.00
2022-07-30T03:55:18.902Z,0.00
2022-07-30T03:56:18.892Z,0.00
2022-07-30T03:57:20.456Z,0.00
2022-07-30T03:58:18.855Z,0.00
2022-07-30T03:59:18.842Z,0.00
2022-07-30T04:00:18.826Z,0.00
2022-07-30T04:01:18.884Z,0.00
2022-07-30T04:02:18.798Z,0.00
2022-07-30T04:03:18.860Z,0.00
2022-07-30T04:04:18.766Z,0.00
2022-07-30T04:05:18.761Z,0.00
2022-07-30T04:06:18.742Z,0.00
2022-07-30T04:07:18.727Z,0.00
2022-07-30T04:08:18.712Z,0.00
2022-07-30T04:09:18.697Z,0.00
2022-07-30T04:10:18.680Z,0.00
2022-07-30T04:11:18.667Z,0.00
2022-07-30T04:12:18.657Z,0.00
2022-07-30T04:13:18.644Z,5.63
2022-07-30T04:14:18.652Z,5.63
2022-07-30T04:16:15.832Z,5.63
2022-07-30T04:16:41.008Z,5.63
2022-07-30T04:17:18.706Z,5.63
2022-07-30T04:18:18.566Z,5.63
2022-07-30T04:19:18.554Z,5.63
2022-07-30T04:20:18.536Z,5.63
2022-07-30T04:21:18.523Z,5.63
2022-07-30T04:22:18.509Z,5.63
2022-07-30T04:23:18.493Z,5.63
2022-07-30T04:24:18.478Z,5.63
2022-07-30T04:25:24.300Z,5.63
2022-07-30T04:26:18.451Z,5.63
2022-07-30T04:27:18.436Z,5.63
2022-07-30T04:28:18.428Z,5.63
2022-07-30T04:29:23.974Z,5.63
2022-07-30T04:30:18.389Z,5.63
2022-07-30T04:31:18.409Z,5.63
2022-07-30T04:32:18.365Z,5.63
2022-07-30T04:33:18.348Z,5.63
2022-07-30T04:34:18.335Z,5.63
2022-07-30T04:35:23.822Z,11.25
2022-07-30T04:36:18.305Z,11.25
2022-07-30T04:37:18.292Z,11.25
2022-07-30T04:38:18.274Z,11.25
2022-07-30T04:39:18.265Z,11.25
2022-07-30T04:40:18.249Z,11.25
2022-07-30T04:41:18.233Z,11.25
2022-07-30T04:42:18.219Z,11.25
2022-07-30T04:43:18.205Z,11.25
2022-07-30T04:44:18.187Z,11.25
2022-07-30T04:45:18.178Z,11.25
2022-07-30T04:46:18.179Z,11.25
2022-07-30T04:47:18.144Z,11.25
2022-07-30T04:48:18.132Z,16.88
2022-07-30T04:49:18.153Z,16.88
2022-07-30T04:50:18.103Z,16.88
2022-07-30T04:51:18.089Z,16.88
2022-07-30T04:52:18.074Z,16.88
2022-07-30T04:53:18.065Z,16.88
2022-07-30T04:54:18.044Z,16.88
2022-07-30T04:55:18.031Z,16.88
2022-07-30T04:56:18.016Z,16.88
2022-07-30T04:57:18.001Z,16.88
2022-07-30T04:58:17.988Z,16.88
2022-07-30T04:59:17.975Z,16.88
2022-07-30T05:00:17.966Z,16.88
2022-07-30T05:01:17.968Z,16.88
2022-07-30T05:02:18.006Z,16.88
2022-07-30T05:03:17.920Z,16.88
2022-07-30T05:04:17.901Z,22.50
2022-07-30T05:05:17.910Z,22.50
2022-07-30T05:06:17.871Z,22.50
2022-07-30T05:07:17.856Z,22.50
2022-07-30T05:08:17.843Z,22.50
2022-07-30T05:09:17.828Z,22.50
2022-07-30T05:10:17.815Z,22.50
2022-07-30T05:11:17.799Z,22.50
2022-07-30T05:12:17.786Z,28.13
2022-07-30T05:13:17.772Z,28.13
2022-07-30T05:14:17.758Z,28.13
2022-07-30T05:15:17.745Z,28.13
2022-07-30T05:16:17.891Z,28.13
2022-07-30T05:17:17.720Z,28.13
2022-07-30T05:18:17.702Z,28.13
2022-07-30T05:19:17.686Z,28.13
2022-07-30T05:20:17.674Z,33.75
2022-07-30T05:21:17.659Z,33.75
2022-07-30T05:22:17.646Z,33.75
2022-07-30T05:23:17.632Z,33.75
2022-07-30T05:24:17.617Z,33.75
2022-07-30T05:25:17.602Z,33.75
2022-07-30T05:26:17.594Z,33.75
2022-07-30T05:27:17.577Z,33.75
2022-07-30T05:28:17.564Z,33.75
2022-07-30T05:29:19.453Z,33.75
2022-07-30T05:30:17.532Z,33.75
2022-07-30T05:31:17.589Z,33.75
2022-07-30T05:32:17.506Z,33.75
2022-07-30T05:33:17.490Z,39.38
2022-07-30T05:34:17.480Z,39.38
2022-07-30T05:35:17.462Z,39.38
2022-07-30T05:36:17.449Z,39.38
2022-07-30T05:37:17.437Z,39.38
2022-07-30T05:38:17.423Z,39.38
2022-07-30T05:39:17.408Z,39.38
2022-07-30T05:40:17.394Z,39.38
2022-07-30T05:41:30.690Z,39.38
2022-07-30T05:42:17.366Z,39.38
2022-07-30T05:43:17.365Z,39.38
2022-07-30T05:44:21.977Z,45.00
2022-07-30T05:45:17.350Z,45.00
2022-07-30T05:46:17.373Z,45.00
2022-07-30T05:47:17.300Z,45.00
2022-07-30T05:48:17.290Z,45.00
2022-07-30T05:49:17.337Z,45.00
2022-07-30T05:50:17.260Z,45.00
2022-07-30T05:51:17.248Z,45.00
2022-07-30T05:52:17.232Z,45.00
2022-07-30T05:53:17.221Z,50.63
2022-07-30T05:54:17.207Z,50.63
2022-07-30T05:55:17.189Z,50.63
2022-07-30T05:56:17.178Z,50.63
2022-07-30T05:57:17.164Z,50.63
2022-07-30T05:58:17.151Z,50.63
2022-07-30T05:59:17.150Z,50.63
2022-07-30T06:00:17.129Z,50.63
2022-07-30T06:01:17.160Z,50.63
2022-07-30T06:02:17.098Z,56.25
2022-07-30T06:03:17.085Z,56.25
2022-07-30T06:04:17.120Z,56.25
2022-07-30T06:05:17.058Z,56.25
2022-07-30T06:06:22.427Z,56.25
2022-07-30T06:07:17.031Z,56.25
2022-07-30T06:08:17.021Z,61.88
2022-07-30T06:09:17.011Z,61.88
2022-07-30T06:10:16.991Z,61.88
2022-07-30T06:11:16.978Z,61.88
2022-07-30T06:12:16.965Z,61.88
2022-07-30T06:13:16.980Z,61.88
2022-07-30T06:14:16.938Z,61.88
2022-07-30T06:15:20.556Z,67.50
2022-07-30T06:16:16.975Z,67.50
2022-07-30T06:17:16.899Z,67.50
2022-07-30T06:18:16.889Z,67.50
2022-07-30T06:19:19.764Z,67.50
2022-07-30T06:20:26.068Z,67.50
2022-07-30T06:22:25.820Z,73.13
2022-07-30T06:23:21.327Z,73.13
2022-07-30T06:25:25.880Z,73.13
2022-07-30T06:26:25.771Z,73.13
2022-07-30T06:28:39.402Z,78.75
2022-07-30T06:29:31.200Z,78.75
2022-07-30T06:31:24.126Z,78.75
2022-07-30T06:32:24.086Z,78.75
2022-07-30T06:34:28.056Z,78.75
2022-07-30T06:35:28.016Z,78.75
2022-07-30T06:37:58.738Z,84.38
2022-07-30T06:38:33.461Z,84.38
2022-07-30T06:40:37.907Z,90.00
2022-07-30T06:41:37.888Z,90.00
2022-07-30T06:43:42.376Z,90.00
2022-07-30T06:44:42.343Z,90.00
2022-07-30T06:46:46.371Z,95.63
2022-07-30T06:47:46.312Z,95.63
2022-07-30T06:49:50.287Z,101.25
2022-07-30T06:50:50.256Z,101.25
2022-07-30T06:52:54.749Z,101.25
2022-07-30T06:53:54.711Z,106.88
2022-07-30T06:56:00.573Z,106.88
2022-07-30T06:56:59.435Z,106.88
2022-07-30T06:59:03.126Z,112.50
2022-07-30T07:00:03.098Z,112.50
2022-07-30T07:01:56.060Z,118.13
2022-07-30T07:02:55.982Z,118.13
2022-07-30T07:05:00.459Z,123.75
2022-07-30T07:06:00.426Z,123.75
2022-07-30T07:08:04.898Z,129.38
2022-07-30T07:09:04.860Z,129.38
2022-07-30T07:11:09.352Z,135.00
2022-07-30T07:12:09.335Z,135.00
2022-07-30T07:14:13.795Z,140.63
2022-07-30T07:15:13.765Z,146.25
2022-07-30T07:17:19.315Z,151.88
2022-07-30T07:18:19.207Z,151.88
2022-07-30T07:20:23.192Z,163.13
2022-07-30T07:21:23.163Z,163.13
2022-07-30T07:23:41.797Z,174.38
2022-07-30T07:24:27.589Z,180.00
2022-07-30T07:26:31.555Z,185.63
2022-07-30T07:27:31.532Z,191.25
2022-07-30T07:29:35.530Z,196.88
2022-07-30T07:30:35.602Z,208.13
2022-07-30T07:32:39.502Z,213.75
2022-07-30T07:33:39.493Z,213.75
2022-07-30T07:35:49.718Z,219.38
2022-07-30T07:36:43.920Z,225.00
2022-07-30T07:38:47.928Z,236.25
2022-07-30T07:39:47.900Z,241.88
2022-07-30T07:41:48.769Z,253.13
2022-07-30T07:42:42.269Z,264.38
2022-07-30T07:44:46.775Z,286.88
2022-07-30T07:45:46.757Z,264.38
2022-07-30T07:47:51.973Z,298.13
2022-07-30T07:48:50.725Z,309.38
2022-07-30T07:50:59.647Z,343.13
2022-07-30T07:51:54.629Z,236.25
2022-07-30T07:54:19.797Z,236.25
2022-07-30T07:54:58.582Z,315.00
2022-07-30T07:57:04.267Z,146.25
2022-07-30T07:58:02.544Z,174.38
2022-07-30T08:00:08.026Z,163.13
2022-07-30T08:01:08.049Z,393.75
2022-07-30T08:03:11.990Z,163.13
2022-07-30T08:04:11.965Z,168.75
2022-07-30T08:06:16.462Z,163.13
2022-07-30T08:07:16.434Z,241.88
2022-07-30T08:09:20.456Z,157.50
2022-07-30T08:10:20.480Z,343.13
2022-07-30T08:12:25.355Z,157.50
2022-07-30T08:13:48.835Z,163.13
2022-07-30T08:15:30.769Z,151.88
2022-07-30T08:16:30.772Z,140.63
2022-07-30T08:18:34.748Z,129.38
2022-07-30T08:19:34.714Z,135.00
2022-07-30T08:21:29.120Z,303.75
2022-07-30T08:22:29.089Z,461.25
2022-07-30T08:24:33.078Z,292.50
2022-07-30T08:25:33.053Z,151.88
2022-07-30T08:27:37.548Z,163.13
2022-07-30T08:28:37.534Z,213.75
2022-07-30T08:30:43.024Z,163.13
2022-07-30T08:31:42.986Z,151.88
2022-07-30T08:33:47.009Z,241.88
2022-07-30T08:34:46.951Z,343.13
2022-07-30T08:36:51.443Z,528.75
2022-07-30T08:37:51.427Z,534.38
2022-07-30T08:39:56.899Z,534.38
2022-07-30T08:40:56.873Z,540.00
2022-07-30T08:43:01.353Z,534.38
2022-07-30T08:44:01.346Z,540.00
2022-07-30T08:46:05.850Z,545.63
2022-07-30T08:47:05.806Z,562.50
2022-07-30T08:49:11.383Z,556.88
2022-07-30T08:50:09.771Z,551.25
2022-07-30T08:52:14.799Z,208.13
2022-07-30T08:53:14.788Z,511.88
2022-07-30T08:55:18.792Z,528.75
2022-07-30T08:56:18.763Z,556.88
2022-07-30T08:58:22.763Z,568.13
2022-07-30T08:59:22.726Z,579.38
2022-07-30T09:01:16.139Z,624.38
2022-07-30T09:02:16.112Z,624.38
2022-07-30T09:04:21.590Z,196.88
2022-07-30T09:05:21.560Z,511.88
2022-07-30T09:07:25.550Z,174.38
2022-07-30T09:08:25.538Z,112.50
2022-07-30T09:10:30.032Z,95.63
2022-07-30T09:11:30.006Z,95.63
2022-07-30T09:13:34.036Z,106.88
2022-07-30T09:14:34.004Z,129.38
2022-07-30T09:16:39.487Z,635.63
2022-07-30T09:17:39.462Z,652.50
2022-07-30T09:19:43.468Z,652.50
2022-07-30T09:20:43.440Z,635.63
2022-07-30T09:22:47.941Z,635.63
2022-07-30T09:23:51.114Z,461.25
2022-07-30T09:25:51.913Z,112.50
2022-07-30T09:26:51.897Z,163.13
2022-07-30T09:28:57.367Z,151.88
2022-07-30T09:29:57.345Z,630.00
2022-07-30T09:31:50.767Z,697.50
2022-07-30T09:32:50.757Z,708.75
2022-07-30T09:34:54.754Z,112.50
2022-07-30T09:35:54.731Z,106.88
2022-07-30T09:38:02.955Z,84.38
2022-07-30T09:38:59.218Z,78.75
2022-07-30T09:41:12.212Z,697.50
2022-07-30T09:42:04.960Z,725.63
2022-07-30T09:44:09.199Z,697.50
2022-07-30T09:45:09.165Z,708.75
2022-07-30T09:47:14.641Z,731.25
2022-07-30T09:48:14.629Z,714.38
2022-07-30T09:50:29.966Z,731.25
2022-07-30T09:51:24.005Z,720.00
2022-07-30T09:53:24.573Z,720.00
2022-07-30T09:54:25.336Z,731.25
2022-07-30T09:56:29.962Z,326.25
2022-07-30T09:57:29.012Z,163.13
2022-07-30T09:59:35.062Z,157.50
2022-07-30T10:00:32.999Z,163.13
2022-07-30T10:02:37.480Z,129.38
2022-07-30T10:03:42.287Z,112.50
2022-07-30T10:05:41.454Z,146.25
2022-07-30T10:06:42.041Z,596.25
2022-07-30T10:08:46.473Z,168.75
2022-07-30T10:09:47.042Z,630.00
2022-07-30T10:11:40.347Z,225.00
2022-07-30T10:12:40.307Z,675.00
2022-07-30T10:14:44.784Z,675.00
2022-07-30T10:15:44.761Z,703.13
2022-07-30T10:17:49.236Z,686.25
2022-07-30T10:18:49.227Z,680.63
2022-07-30T10:20:53.749Z,708.75
2022-07-30T10:21:53.704Z,736.88
2022-07-30T10:23:57.776Z,781.88
2022-07-30T10:24:57.731Z,753.75
2022-07-30T10:27:06.171Z,742.50
2022-07-30T10:28:03.309Z,742.50
2022-07-30T10:30:08.686Z,748.13
2022-07-30T10:31:47.183Z,748.13
2022-07-30T10:33:34.614Z,720.00
2022-07-30T10:34:13.143Z,703.13
2022-07-30T10:36:17.643Z,753.75
2022-07-30T10:37:17.646Z,798.75
2022-07-30T10:39:23.137Z,708.75
2022-07-30T10:40:24.041Z,742.50
2022-07-30T10:42:28.577Z,720.00
2022-07-30T10:43:31.708Z,123.75
2022-07-30T10:45:34.042Z,146.25
2022-07-30T10:46:34.028Z,157.50
2022-07-30T10:48:38.021Z,225.00
2022-07-30T10:49:41.006Z,140.63
2022-07-30T10:51:34.402Z,123.75
2022-07-30T10:52:30.920Z,129.38
2022-07-30T10:54:39.269Z,163.13
2022-07-30T10:55:38.934Z,168.75
2022-07-30T10:57:41.868Z,821.25
2022-07-30T10:58:41.859Z,810.00
2022-07-30T11:00:46.146Z,781.88
2022-07-30T11:01:47.531Z,686.25
2022-07-30T11:02:46.098Z,759.38
2022-07-30T11:03:46.093Z,731.25
2022-07-30T11:04:46.086Z,815.63
2022-07-30T11:05:46.131Z,579.38
2022-07-30T11:06:46.083Z,753.75
2022-07-30T11:07:47.327Z,843.75
2022-07-30T11:08:48.199Z,838.13
2022-07-30T11:10:04.963Z,826.88
2022-07-30T11:10:46.128Z,810.00
2022-07-30T11:12:01.098Z,815.63
2022-07-30T11:12:46.062Z,810.00
2022-07-30T11:13:46.057Z,781.88
2022-07-30T11:14:46.053Z,793.13
2022-07-30T11:15:46.052Z,804.38
2022-07-30T11:16:46.049Z,826.88
2022-07-30T11:17:46.047Z,832.50
2022-07-30T11:18:46.045Z,810.00
2022-07-30T11:19:55.709Z,787.50
2022-07-30T11:20:48.769Z,832.50
2022-07-30T11:21:46.037Z,849.38
2022-07-30T11:22:46.037Z,855.00
2022-07-30T11:23:46.033Z,855.00
2022-07-30T11:24:46.031Z,826.88
2022-07-30T11:25:52.038Z,866.25
2022-07-30T11:26:46.029Z,860.63
2022-07-30T11:27:46.134Z,753.75
2022-07-30T11:28:46.030Z,883.13
2022-07-30T11:29:50.784Z,888.75
2022-07-30T11:30:46.029Z,888.75
2022-07-30T11:31:56.766Z,877.50
2022-07-30T11:32:48.534Z,905.63
2022-07-30T11:33:46.023Z,590.63
2022-07-30T11:34:46.019Z,855.00
2022-07-30T11:35:46.018Z,112.50
2022-07-30T11:36:47.552Z,112.50
2022-07-30T11:37:51.974Z,855.00
2022-07-30T11:38:46.013Z,804.38
2022-07-30T11:39:46.013Z,855.00
2022-07-30T11:40:46.013Z,894.38
2022-07-30T11:41:46.012Z,225.00
2022-07-30T11:42:46.007Z,433.13
2022-07-30T11:43:46.013Z,191.25
2022-07-30T11:44:46.007Z,151.88
2022-07-30T11:45:46.010Z,883.13
2022-07-30T11:46:46.007Z,770.63
2022-07-30T11:47:46.006Z,129.38
2022-07-30T11:48:46.064Z,196.88
2022-07-30T11:49:46.004Z,894.38
2022-07-30T11:50:45.999Z,871.88
2022-07-30T11:51:46.001Z,866.25
2022-07-30T11:52:45.998Z,871.88
2022-07-30T11:53:46.002Z,855.00
2022-07-30T11:54:45.998Z,843.75
2022-07-30T11:55:45.996Z,838.13
2022-07-30T11:56:45.998Z,860.63
2022-07-30T11:57:45.996Z,849.38
2022-07-30T11:58:45.994Z,838.13
2022-07-30T11:59:45.993Z,849.38
2022-07-30T12:00:46.004Z,860.63
2022-07-30T12:01:45.993Z,860.63
2022-07-30T12:02:46.046Z,871.88
2022-07-30T12:03:45.992Z,849.38
2022-07-30T12:04:45.993Z,855.00
2022-07-30T12:05:45.992Z,855.00
2022-07-30T12:06:45.991Z,838.13
2022-07-30T12:07:45.992Z,815.63
2022-07-30T12:08:45.986Z,815.63
2022-07-30T12:09:45.993Z,618.75
2022-07-30T12:10:45.991Z,826.88
2022-07-30T12:11:45.987Z,883.13
2022-07-30T12:12:45.986Z,151.88
2022-07-30T12:13:46.303Z,135.00
2022-07-30T12:14:45.987Z,146.25
2022-07-30T12:15:45.987Z,208.13
2022-07-30T12:16:45.985Z,450.00
2022-07-30T12:17:46.007Z,168.75
2022-07-30T12:18:45.991Z,821.25
2022-07-30T12:19:47.421Z,770.63
2022-07-30T12:20:45.984Z,461.25
2022-07-30T12:21:49.598Z,832.50
2022-07-30T12:22:45.989Z,855.00
2022-07-30T12:23:45.984Z,241.88
2022-07-30T12:24:45.981Z,804.38
2022-07-30T12:25:47.780Z,849.38
2022-07-30T12:26:45.979Z,832.50
2022-07-30T12:27:49.184Z,826.88
2022-07-30T12:28:45.977Z,776.25
2022-07-30T12:29:45.980Z,810.00
2022-07-30T12:30:45.977Z,815.63
2022-07-30T12:31:45.977Z,821.25
2022-07-30T12:32:45.977Z,810.00
2022-07-30T12:33:45.975Z,804.38
2022-07-30T12:34:45.973Z,804.38
2022-07-30T12:35:45.978Z,793.13
2022-07-30T12:36:45.974Z,781.88
2022-07-30T12:37:45.975Z,776.25
2022-07-30T12:38:45.980Z,787.50
2022-07-30T12:39:45.974Z,776.25
2022-07-30T12:40:56.071Z,776.25
2022-07-30T12:42:52.904Z,776.25
2022-07-30T12:43:52.868Z,781.88
2022-07-30T12:44:52.906Z,776.25
2022-07-30T12:45:54.363Z,765.00
2022-07-30T12:46:52.867Z,748.13
2022-07-30T12:47:52.851Z,753.75
2022-07-30T12:48:52.907Z,742.50
2022-07-30T12:49:53.203Z,748.13
2022-07-30T12:50:52.852Z,748.13
2022-07-30T12:51:52.849Z,720.00
2022-07-30T12:52:52.852Z,731.25
2022-07-30T12:53:52.851Z,725.63
2022-07-30T12:54:52.853Z,714.38
2022-07-30T12:55:52.851Z,720.00
2022-07-30T12:56:52.855Z,708.75
2022-07-30T12:57:52.855Z,703.13
2022-07-30T12:58:52.855Z,703.13
2022-07-30T12:59:52.861Z,720.00
2022-07-30T13:00:52.885Z,680.63
2022-07-30T13:01:52.901Z,708.75
2022-07-30T13:02:52.856Z,697.50
2022-07-30T13:03:52.856Z,680.63
2022-07-30T13:05:01.101Z,95.63
2022-07-30T13:05:55.673Z,95.63
2022-07-30T13:06:52.860Z,123.75
2022-07-30T13:07:52.857Z,365.63
2022-07-30T13:08:52.867Z,686.25
2022-07-30T13:09:52.861Z,140.63
2022-07-30T13:10:52.868Z,388.13
2022-07-30T13:11:52.861Z,675.00
2022-07-30T13:12:52.864Z,675.00
2022-07-30T13:13:52.861Z,686.25
2022-07-30T13:14:52.863Z,129.38
2022-07-30T13:15:54.210Z,174.38
2022-07-30T13:16:52.868Z,219.38
2022-07-30T13:17:52.857Z,461.25
2022-07-30T13:18:52.860Z,652.50
2022-07-30T13:19:52.860Z,646.88
2022-07-30T13:20:52.860Z,624.38
2022-07-30T13:21:52.857Z,630.00
2022-07-30T13:22:52.865Z,630.00
2022-07-30T13:23:52.852Z,630.00
2022-07-30T13:24:52.852Z,613.13
2022-07-30T13:25:52.858Z,596.25
2022-07-30T13:26:52.860Z,590.63
2022-07-30T13:27:52.849Z,579.38
2022-07-30T13:28:52.852Z,556.88
2022-07-30T13:29:52.848Z,579.38
2022-07-30T13:30:52.849Z,573.75
2022-07-30T13:31:52.847Z,590.63
2022-07-30T13:32:52.847Z,585.00
2022-07-30T13:33:52.846Z,590.63
2022-07-30T13:34:52.849Z,590.63
2022-07-30T13:35:52.843Z,573.75
2022-07-30T13:36:52.845Z,562.50
2022-07-30T13:37:52.842Z,540.00
2022-07-30T13:38:52.842Z,196.88
2022-07-30T13:39:52.840Z,562.50
2022-07-30T13:40:52.847Z,562.50
2022-07-30T13:41:52.837Z,478.13
2022-07-30T13:42:52.844Z,551.25
2022-07-30T13:43:52.841Z,517.50
2022-07-30T13:44:52.837Z,101.25
2022-07-30T13:45:52.836Z,129.38
2022-07-30T13:46:52.842Z,112.50
2022-07-30T13:47:52.834Z,270.00
2022-07-30T13:48:52.859Z,376.88
2022-07-30T13:49:52.835Z,523.13
2022-07-30T13:50:52.834Z,517.50
2022-07-30T13:51:52.830Z,517.50
2022-07-30T13:52:52.830Z,523.13
2022-07-30T13:53:52.833Z,495.00
2022-07-30T13:54:52.843Z,399.38
2022-07-30T13:55:52.828Z,399.38
2022-07-30T13:56:52.830Z,382.50
2022-07-30T13:57:52.826Z,382.50
2022-07-30T13:58:52.827Z,405.00
2022-07-30T13:59:52.824Z,343.13
2022-07-30T14:00:52.828Z,118.13
2022-07-30T14:01:52.886Z,376.88
2022-07-30T14:02:52.823Z,405.00
2022-07-30T14:03:52.822Z,455.63
2022-07-30T14:04:52.825Z,466.88
2022-07-30T14:05:52.820Z,455.63
2022-07-30T14:06:52.824Z,421.88
2022-07-30T14:07:52.821Z,388.13
2022-07-30T14:08:52.827Z,388.13
2022-07-30T14:09:54.618Z,427.50
2022-07-30T14:10:52.814Z,365.63
2022-07-30T14:11:52.807Z,399.38
2022-07-30T14:12:52.811Z,399.38
2022-07-30T14:13:52.813Z,399.38
2022-07-30T14:14:52.807Z,382.50
2022-07-30T14:15:52.834Z,337.50
2022-07-30T14:16:53.735Z,382.50
2022-07-30T14:17:56.542Z,388.13
2022-07-30T14:18:52.804Z,360.00
2022-07-30T14:19:52.809Z,112.50
2022-07-30T14:20:52.804Z,112.50
2022-07-30T14:21:52.902Z,354.38
2022-07-30T14:22:52.802Z,348.75
2022-07-30T14:23:52.797Z,354.38
2022-07-30T14:24:52.801Z,348.75
2022-07-30T14:25:52.796Z,303.75
2022-07-30T14:26:57.750Z,298.13
2022-07-30T14:27:52.793Z,315.00